sensor_id;sensor_type;location;lat;lon;timestamp;pressure;altitude;pressure_sealevel;temperature;humidity
72285;BME280;60220;53.552;10.092;2023-06-14T00:01:06;101632.97;;;16.93;60.10
72285;BME280;60220;53.552;10.092;2023-06-14T00:03:32;101637.94;;;17.05;59.81
72285;BME280;60220;53.552;10.092;2023-06-14T00:05:59;101627.03;;;17.17;59.58
72285;BME280;60220;53.552;10.092;2023-06-14T00:08:27;101628.66;;;17.55;58.24
72285;BME280;60220;53.552;10.092;2023-06-14T00:10:56;101637.31;;;17.29;58.73
72285;BME280;60220;53.552;10.092;2023-06-14T00:13:25;101637.25;;;17.32;58.39
72285;BME280;60220;53.552;10.092;2023-06-14T00:15:51;101644.91;;;17.09;59.38
72285;BME280;60220;53.552;10.092;2023-06-14T00:18:20;101645.66;;;17.14;59.33
72285;BME280;60220;53.552;10.092;2023-06-14T00:20:52;101644.69;;;17.18;59.27
72285;BME280;60220;53.552;10.092;2023-06-14T00:23:19;101643.94;;;17.13;59.49
72285;BME280;60220;53.552;10.092;2023-06-14T00:25:49;101645.00;;;17.40;58.71
72285;BME280;60220;53.552;10.092;2023-06-14T00:28:15;101651.22;;;17.05;59.88
72285;BME280;60220;53.552;10.092;2023-06-14T00:30:42;101647.03;;;16.95;59.43
72285;BME280;60220;53.552;10.092;2023-06-14T00:33:11;101648.44;;;16.74;60.51
72285;BME280;60220;53.552;10.092;2023-06-14T00:35:38;101651.38;;;17.33;58.92
72285;BME280;60220;53.552;10.092;2023-06-14T00:38:08;101659.41;;;17.30;58.61
72285;BME280;60220;53.552;10.092;2023-06-14T00:40:34;101656.44;;;16.72;60.43
72285;BME280;60220;53.552;10.092;2023-06-14T00:43:02;101665.84;;;17.21;59.22
72285;BME280;60220;53.552;10.092;2023-06-14T00:45:31;101657.63;;;16.96;59.67
72285;BME280;60220;53.552;10.092;2023-06-14T00:48:01;101659.84;;;16.77;60.47
72285;BME280;60220;53.552;10.092;2023-06-14T00:50:28;101654.03;;;16.63;60.95
72285;BME280;60220;53.552;10.092;2023-06-14T00:52:58;101661.63;;;16.78;60.25
72285;BME280;60220;53.552;10.092;2023-06-14T00:55:27;101663.84;;;16.58;61.45
72285;BME280;60220;53.552;10.092;2023-06-14T00:57:54;101663.03;;;16.92;60.30
72285;BME280;60220;53.552;10.092;2023-06-14T01:00:25;101665.16;;;16.77;60.20
72285;BME280;60220;53.552;10.092;2023-06-14T01:02:53;101666.41;;;16.61;60.88
72285;BME280;60220;53.552;10.092;2023-06-14T01:05:21;101667.09;;;16.69;60.95
72285;BME280;60220;53.552;10.092;2023-06-14T01:07:59;101670.34;;;16.82;60.80
72285;BME280;60220;53.552;10.092;2023-06-14T01:10:40;101672.13;;;16.82;61.37
72285;BME280;60220;53.552;10.092;2023-06-14T01:13:18;101672.97;;;16.84;61.06
72285;BME280;60220;53.552;10.092;2023-06-14T01:15:47;101674.03;;;16.76;61.02
72285;BME280;60220;53.552;10.092;2023-06-14T01:18:16;101672.50;;;16.66;60.63
72285;BME280;60220;53.552;10.092;2023-06-14T01:20:44;101674.03;;;17.12;60.03
72285;BME280;60220;53.552;10.092;2023-06-14T01:23:16;101671.38;;;16.76;60.50
72285;BME280;60220;53.552;10.092;2023-06-14T01:25:43;101679.56;;;16.66;61.06
72285;BME280;60220;53.552;10.092;2023-06-14T01:28:10;101675.16;;;16.66;61.10
72285;BME280;60220;53.552;10.092;2023-06-14T01:30:40;101671.81;;;16.55;61.71
72285;BME280;60220;53.552;10.092;2023-06-14T01:33:10;101681.38;;;16.64;61.21
72285;BME280;60220;53.552;10.092;2023-06-14T01:35:38;101672.03;;;16.46;61.34
72285;BME280;60220;53.552;10.092;2023-06-14T01:38:06;101672.41;;;16.69;61.20
72285;BME280;60220;53.552;10.092;2023-06-14T01:40:34;101673.94;;;16.79;60.98
72285;BME280;60220;53.552;10.092;2023-06-14T01:43:02;101675.66;;;16.42;62.11
72285;BME280;60220;53.552;10.092;2023-06-14T01:45:29;101675.31;;;16.57;61.97
72285;BME280;60220;53.552;10.092;2023-06-14T01:47:57;101673.06;;;16.39;62.02
72285;BME280;60220;53.552;10.092;2023-06-14T01:50:28;101673.34;;;16.27;62.64
72285;BME280;60220;53.552;10.092;2023-06-14T01:52:58;101678.44;;;16.36;61.81
72285;BME280;60220;53.552;10.092;2023-06-14T01:55:25;101678.91;;;16.55;61.34
72285;BME280;60220;53.552;10.092;2023-06-14T01:57:53;101678.00;;;16.56;61.35
72285;BME280;60220;53.552;10.092;2023-06-14T02:00:21;101672.63;;;16.60;61.15
72285;BME280;60220;53.552;10.092;2023-06-14T02:02:47;101672.56;;;16.63;61.15
72285;BME280;60220;53.552;10.092;2023-06-14T02:05:14;101674.69;;;16.46;61.85
72285;BME280;60220;53.552;10.092;2023-06-14T02:07:44;101682.59;;;16.08;62.83
72285;BME280;60220;53.552;10.092;2023-06-14T02:10:11;101685.19;;;16.09;63.70
72285;BME280;60220;53.552;10.092;2023-06-14T02:12:37;101682.22;;;16.24;62.57
72285;BME280;60220;53.552;10.092;2023-06-14T02:15:07;101687.34;;;15.90;63.88
72285;BME280;60220;53.552;10.092;2023-06-14T02:17:34;101678.66;;;16.27;63.64
72285;BME280;60220;53.552;10.092;2023-06-14T02:20:01;101674.59;;;16.49;62.21
72285;BME280;60220;53.552;10.092;2023-06-14T02:22:30;101672.78;;;16.53;62.02
72285;BME280;60220;53.552;10.092;2023-06-14T02:24:57;101679.31;;;16.38;62.57
72285;BME280;60220;53.552;10.092;2023-06-14T02:27:24;101680.44;;;16.25;62.95
72285;BME280;60220;53.552;10.092;2023-06-14T02:29:50;101682.31;;;16.20;63.74
72285;BME280;60220;53.552;10.092;2023-06-14T02:32:18;101687.63;;;16.20;63.39
72285;BME280;60220;53.552;10.092;2023-06-14T02:34:45;101690.03;;;15.89;64.48
72285;BME280;60220;53.552;10.092;2023-06-14T02:37:15;101687.66;;;15.75;64.80
72285;BME280;60220;53.552;10.092;2023-06-14T02:39:41;101691.19;;;16.19;64.07
72285;BME280;60220;53.552;10.092;2023-06-14T02:42:08;101687.94;;;16.05;64.15
72285;BME280;60220;53.552;10.092;2023-06-14T02:44:35;101693.56;;;16.31;63.31
72285;BME280;60220;53.552;10.092;2023-06-14T02:47:02;101695.00;;;16.06;64.02
72285;BME280;60220;53.552;10.092;2023-06-14T02:49:30;101687.41;;;16.29;63.52
72285;BME280;60220;53.552;10.092;2023-06-14T02:51:57;101691.81;;;16.31;63.62
72285;BME280;60220;53.552;10.092;2023-06-14T02:54:23;101696.25;;;15.88;64.34
72285;BME280;60220;53.552;10.092;2023-06-14T02:56:52;101702.03;;;16.07;64.59
72285;BME280;60220;53.552;10.092;2023-06-14T02:59:19;101704.66;;;16.08;64.56
72285;BME280;60220;53.552;10.092;2023-06-14T03:01:46;101697.22;;;15.84;64.91
72285;BME280;60220;53.552;10.092;2023-06-14T03:04:13;101707.44;;;16.01;64.86
72285;BME280;60220;53.552;10.092;2023-06-14T03:06:42;101696.53;;;16.16;64.39
72285;BME280;60220;53.552;10.092;2023-06-14T03:09:15;101706.25;;;16.15;64.53
72285;BME280;60220;53.552;10.092;2023-06-14T03:11:42;101707.75;;;15.85;65.20
72285;BME280;60220;53.552;10.092;2023-06-14T03:14:09;101703.31;;;16.29;64.12
72285;BME280;60220;53.552;10.092;2023-06-14T03:16:36;101709.81;;;16.14;64.27
72285;BME280;60220;53.552;10.092;2023-06-14T03:19:06;101704.50;;;16.14;63.70
72285;BME280;60220;53.552;10.092;2023-06-14T03:21:32;101713.88;;;16.32;63.74
72285;BME280;60220;53.552;10.092;2023-06-14T03:24:01;101715.03;;;15.74;65.42
72285;BME280;60220;53.552;10.092;2023-06-14T03:26:28;101717.13;;;16.03;65.69
72285;BME280;60220;53.552;10.092;2023-06-14T03:28:55;101711.25;;;15.87;65.25
72285;BME280;60220;53.552;10.092;2023-06-14T03:31:22;101712.88;;;15.94;65.86
72285;BME280;60220;53.552;10.092;2023-06-14T03:33:52;101715.56;;;15.93;65.70
72285;BME280;60220;53.552;10.092;2023-06-14T03:36:20;101719.72;;;16.05;65.60
72285;BME280;60220;53.552;10.092;2023-06-14T03:38:48;101718.31;;;15.88;65.82
72285;BME280;60220;53.552;10.092;2023-06-14T03:41:16;101720.50;;;16.10;65.20
72285;BME280;60220;53.552;10.092;2023-06-14T03:43:42;101721.03;;;16.27;64.88
72285;BME280;60220;53.552;10.092;2023-06-14T03:46:09;101726.63;;;16.13;65.47
72285;BME280;60220;53.552;10.092;2023-06-14T03:48:35;101726.25;;;16.30;64.61
72285;BME280;60220;53.552;10.092;2023-06-14T03:51:02;101723.84;;;16.62;63.87
72285;BME280;60220;53.552;10.092;2023-06-14T03:53:29;101733.97;;;16.42;64.38
72285;BME280;60220;53.552;10.092;2023-06-14T03:55:56;101743.22;;;16.64;64.21
72285;BME280;60220;53.552;10.092;2023-06-14T03:58:24;101745.41;;;16.44;63.94
72285;BME280;60220;53.552;10.092;2023-06-14T04:00:53;101749.53;;;16.57;64.33
72285;BME280;60220;53.552;10.092;2023-06-14T04:03:22;101752.31;;;16.51;64.71
72285;BME280;60220;53.552;10.092;2023-06-14T04:05:50;101753.84;;;16.20;65.34
72285;BME280;60220;53.552;10.092;2023-06-14T04:08:22;101756.84;;;16.88;63.85
72285;BME280;60220;53.552;10.092;2023-06-14T04:10:50;101762.13;;;16.48;64.89
72285;BME280;60220;53.552;10.092;2023-06-14T04:13:17;101762.75;;;16.60;64.59
72285;BME280;60220;53.552;10.092;2023-06-14T04:15:45;101761.94;;;16.58;64.87
72285;BME280;60220;53.552;10.092;2023-06-14T04:18:12;101770.00;;;16.92;64.08
72285;BME280;60220;53.552;10.092;2023-06-14T04:20:41;101764.19;;;16.75;63.69
72285;BME280;60220;53.552;10.092;2023-06-14T04:23:12;101767.13;;;17.03;63.42
72285;BME280;60220;53.552;10.092;2023-06-14T04:25:39;101771.53;;;17.02;63.69
72285;BME280;60220;53.552;10.092;2023-06-14T04:28:11;101770.84;;;17.31;62.48
72285;BME280;60220;53.552;10.092;2023-06-14T04:30:37;101774.50;;;17.26;62.78
72285;BME280;60220;53.552;10.092;2023-06-14T04:33:07;101765.41;;;16.99;63.45
72285;BME280;60220;53.552;10.092;2023-06-14T04:35:35;101770.72;;;16.99;64.19
72285;BME280;60220;53.552;10.092;2023-06-14T04:38:03;101779.44;;;17.04;64.34
72285;BME280;60220;53.552;10.092;2023-06-14T04:40:34;101771.06;;;17.57;62.32
72285;BME280;60220;53.552;10.092;2023-06-14T04:43:01;101783.06;;;17.38;62.69
72285;BME280;60220;53.552;10.092;2023-06-14T04:45:33;101773.97;;;17.48;62.22
72285;BME280;60220;53.552;10.092;2023-06-14T04:47:59;101776.78;;;17.41;62.94
72285;BME280;60220;53.552;10.092;2023-06-14T04:50:28;101776.47;;;17.88;62.09
72285;BME280;60220;53.552;10.092;2023-06-14T04:52:55;101777.44;;;17.86;61.57
72285;BME280;60220;53.552;10.092;2023-06-14T04:55:22;101774.56;;;17.59;62.15
72285;BME280;60220;53.552;10.092;2023-06-14T04:57:50;101775.22;;;18.03;61.14
72285;BME280;60220;53.552;10.092;2023-06-14T05:00:19;101776.03;;;17.73;61.72
72285;BME280;60220;53.552;10.092;2023-06-14T05:02:46;101776.19;;;17.67;62.28
72285;BME280;60220;53.552;10.092;2023-06-14T05:05:16;101774.94;;;18.12;60.50
72285;BME280;60220;53.552;10.092;2023-06-14T05:07:46;101767.19;;;18.94;57.88
72285;BME280;60220;53.552;10.092;2023-06-14T05:10:13;101769.41;;;19.35;56.54
72285;BME280;60220;53.552;10.092;2023-06-14T05:12:39;101770.78;;;19.49;56.09
72285;BME280;60220;53.552;10.092;2023-06-14T05:15:09;101766.94;;;19.57;54.76
72285;BME280;60220;53.552;10.092;2023-06-14T05:17:36;101773.09;;;19.84;54.54
72285;BME280;60220;53.552;10.092;2023-06-14T05:20:07;101770.72;;;20.01;53.85
72285;BME280;60220;53.552;10.092;2023-06-14T05:22:35;101774.19;;;20.03;53.63
72285;BME280;60220;53.552;10.092;2023-06-14T05:25:04;101771.81;;;20.90;51.98
72285;BME280;60220;53.552;10.092;2023-06-14T05:27:31;101779.38;;;21.46;49.93
72285;BME280;60220;53.552;10.092;2023-06-14T05:29:59;101778.00;;;21.14;50.29
72285;BME280;60220;53.552;10.092;2023-06-14T05:32:27;101779.31;;;21.26;49.50
72285;BME280;60220;53.552;10.092;2023-06-14T05:34:53;101776.84;;;20.98;49.50
72285;BME280;60220;53.552;10.092;2023-06-14T05:37:20;101776.38;;;20.65;51.04
72285;BME280;60220;53.552;10.092;2023-06-14T05:39:49;101781.13;;;20.57;51.17
72285;BME280;60220;53.552;10.092;2023-06-14T05:42:17;101779.44;;;20.31;53.12
72285;BME280;60220;53.552;10.092;2023-06-14T05:44:43;101781.81;;;20.14;52.00
72285;BME280;60220;53.552;10.092;2023-06-14T05:47:12;101788.09;;;19.62;53.51
72285;BME280;60220;53.552;10.092;2023-06-14T05:49:39;101790.28;;;19.75;53.69
72285;BME280;60220;53.552;10.092;2023-06-14T05:52:07;101794.16;;;19.67;53.71
72285;BME280;60220;53.552;10.092;2023-06-14T05:54:34;101798.78;;;19.87;53.30
72285;BME280;60220;53.552;10.092;2023-06-14T05:57:00;101796.59;;;19.47;53.61
72285;BME280;60220;53.552;10.092;2023-06-14T05:59:30;101798.81;;;19.85;53.47
72285;BME280;60220;53.552;10.092;2023-06-14T06:01:56;101800.06;;;19.75;53.92
72285;BME280;60220;53.552;10.092;2023-06-14T06:04:23;101803.88;;;20.67;51.90
72285;BME280;60220;53.552;10.092;2023-06-14T06:06:50;101808.66;;;19.83;52.10
72285;BME280;60220;53.552;10.092;2023-06-14T06:09:16;101793.44;;;20.61;50.44
72285;BME280;60220;53.552;10.092;2023-06-14T06:11:44;101808.88;;;20.98;48.65
72285;BME280;60220;53.552;10.092;2023-06-14T06:14:13;101805.91;;;21.05;47.64
72285;BME280;60220;53.552;10.092;2023-06-14T06:16:41;101803.03;;;20.88;49.37
72285;BME280;60220;53.552;10.092;2023-06-14T06:19:08;101804.81;;;21.33;48.36
72285;BME280;60220;53.552;10.092;2023-06-14T06:21:35;101799.16;;;21.82;47.17
72285;BME280;60220;53.552;10.092;2023-06-14T06:24:01;101805.53;;;21.16;47.34
72285;BME280;60220;53.552;10.092;2023-06-14T06:26:30;101800.34;;;21.33;47.09
72285;BME280;60220;53.552;10.092;2023-06-14T06:28:57;101815.34;;;21.79;45.48
72285;BME280;60220;53.552;10.092;2023-06-14T06:31:25;101818.59;;;22.28;43.92
72285;BME280;60220;53.552;10.092;2023-06-14T06:33:56;101800.03;;;22.83;42.78
72285;BME280;60220;53.552;10.092;2023-06-14T06:36:22;101808.81;;;22.07;43.89
72285;BME280;60220;53.552;10.092;2023-06-14T06:38:49;101811.19;;;21.92;44.19
72285;BME280;60220;53.552;10.092;2023-06-14T06:41:16;101809.59;;;21.88;44.17
72285;BME280;60220;53.552;10.092;2023-06-14T06:43:43;101818.53;;;21.67;44.62
72285;BME280;60220;53.552;10.092;2023-06-14T06:46:09;101818.59;;;22.08;44.04
72285;BME280;60220;53.552;10.092;2023-06-14T06:48:39;101816.56;;;22.33;43.18
72285;BME280;60220;53.552;10.092;2023-06-14T06:51:07;101823.13;;;22.85;41.91
72285;BME280;60220;53.552;10.092;2023-06-14T06:53:33;101826.97;;;22.80;42.42
72285;BME280;60220;53.552;10.092;2023-06-14T06:56:02;101828.09;;;23.11;41.26
72285;BME280;60220;53.552;10.092;2023-06-14T06:58:29;101840.03;;;23.78;40.18
72285;BME280;60220;53.552;10.092;2023-06-14T07:00:56;101825.75;;;23.41;41.53
72285;BME280;60220;53.552;10.092;2023-06-14T07:03:25;101832.16;;;23.75;40.62
72285;BME280;60220;53.552;10.092;2023-06-14T07:05:52;101836.00;;;23.86;39.57
72285;BME280;60220;53.552;10.092;2023-06-14T07:08:20;101826.34;;;24.18;39.04
72285;BME280;60220;53.552;10.092;2023-06-14T07:10:46;101833.59;;;24.33;39.21
72285;BME280;60220;53.552;10.092;2023-06-14T07:13:15;101839.25;;;23.93;38.89
72285;BME280;60220;53.552;10.092;2023-06-14T07:15:42;101837.75;;;24.89;37.51
72285;BME280;60220;53.552;10.092;2023-06-14T07:18:20;101843.69;;;23.94;38.68
72285;BME280;60220;53.552;10.092;2023-06-14T07:20:54;101839.03;;;24.15;37.64
72285;BME280;60220;53.552;10.092;2023-06-14T07:23:23;101845.72;;;22.59;41.19
72285;BME280;60220;53.552;10.092;2023-06-14T07:25:50;101840.84;;;23.25;39.62
72285;BME280;60220;53.552;10.092;2023-06-14T07:28:17;101838.09;;;23.45;38.83
72285;BME280;60220;53.552;10.092;2023-06-14T07:30:44;101844.00;;;23.52;39.48
72285;BME280;60220;53.552;10.092;2023-06-14T07:33:10;101835.28;;;22.73;41.48
72285;BME280;60220;53.552;10.092;2023-06-14T07:35:40;101836.19;;;23.47;39.69
72285;BME280;60220;53.552;10.092;2023-06-14T07:38:09;101836.63;;;23.91;38.59
72285;BME280;60220;53.552;10.092;2023-06-14T07:40:39;101838.47;;;23.91;38.66
72285;BME280;60220;53.552;10.092;2023-06-14T07:43:05;101829.78;;;23.69;39.30
72285;BME280;60220;53.552;10.092;2023-06-14T07:45:32;101840.69;;;24.34;37.61
72285;BME280;60220;53.552;10.092;2023-06-14T07:47:59;101837.34;;;23.78;38.43
72285;BME280;60220;53.552;10.092;2023-06-14T07:50:25;101837.13;;;23.82;39.24
72285;BME280;60220;53.552;10.092;2023-06-14T07:52:52;101831.38;;;23.90;38.01
72285;BME280;60220;53.552;10.092;2023-06-14T07:55:19;101828.53;;;23.93;38.69
72285;BME280;60220;53.552;10.092;2023-06-14T07:57:49;101836.94;;;24.87;38.47
72285;BME280;60220;53.552;10.092;2023-06-14T08:00:16;101834.25;;;24.87;37.12
72285;BME280;60220;53.552;10.092;2023-06-14T08:02:44;101834.44;;;24.67;37.95
72285;BME280;60220;53.552;10.092;2023-06-14T08:05:13;101835.78;;;24.42;37.67
72285;BME280;60220;53.552;10.092;2023-06-14T08:07:40;101823.28;;;24.59;37.46
72285;BME280;60220;53.552;10.092;2023-06-14T08:10:08;101835.06;;;24.72;37.16
72285;BME280;60220;53.552;10.092;2023-06-14T08:12:37;101826.75;;;25.09;36.22
72285;BME280;60220;53.552;10.092;2023-06-14T08:15:06;101825.44;;;25.16;35.65
72285;BME280;60220;53.552;10.092;2023-06-14T08:17:33;101825.75;;;25.42;36.36
72285;BME280;60220;53.552;10.092;2023-06-14T08:20:00;101825.88;;;25.40;35.16
72285;BME280;60220;53.552;10.092;2023-06-14T08:22:27;101826.63;;;25.26;35.93
72285;BME280;60220;53.552;10.092;2023-06-14T08:24:57;101834.28;;;25.18;35.67
72285;BME280;60220;53.552;10.092;2023-06-14T08:27:23;101829.09;;;25.15;36.65
72285;BME280;60220;53.552;10.092;2023-06-14T08:29:50;101829.59;;;25.06;36.07
72285;BME280;60220;53.552;10.092;2023-06-14T08:32:18;101836.09;;;24.36;37.68
72285;BME280;60220;53.552;10.092;2023-06-14T08:34:45;101830.38;;;24.60;38.08
72285;BME280;60220;53.552;10.092;2023-06-14T08:37:11;101832.06;;;23.76;38.63
72285;BME280;60220;53.552;10.092;2023-06-14T08:39:39;101828.53;;;24.10;38.49
72285;BME280;60220;53.552;10.092;2023-06-14T08:42:07;101821.34;;;24.11;38.09
72285;BME280;60220;53.552;10.092;2023-06-14T08:44:35;101827.56;;;24.11;38.62
72285;BME280;60220;53.552;10.092;2023-06-14T08:47:05;101828.38;;;24.63;37.77
72285;BME280;60220;53.552;10.092;2023-06-14T08:49:36;101833.22;;;25.37;37.37
72285;BME280;60220;53.552;10.092;2023-06-14T08:52:08;101833.50;;;25.93;35.18
72285;BME280;60220;53.552;10.092;2023-06-14T08:54:38;101833.25;;;25.82;34.56
72285;BME280;60220;53.552;10.092;2023-06-14T08:57:10;101829.09;;;25.15;34.99
72285;BME280;60220;53.552;10.092;2023-06-14T08:59:43;101841.53;;;25.48;37.38
72285;BME280;60220;53.552;10.092;2023-06-14T09:02:15;101837.50;;;25.86;34.49
72285;BME280;60220;53.552;10.092;2023-06-14T09:04:46;101839.03;;;25.13;36.39
72285;BME280;60220;53.552;10.092;2023-06-14T09:07:16;101835.72;;;25.71;34.61
72285;BME280;60220;53.552;10.092;2023-06-14T09:09:43;101836.44;;;25.43;34.97
72285;BME280;60220;53.552;10.092;2023-06-14T09:12:10;101837.31;;;25.44;36.45
72285;BME280;60220;53.552;10.092;2023-06-14T09:14:38;101839.47;;;24.90;36.01
72285;BME280;60220;53.552;10.092;2023-06-14T09:17:07;101827.47;;;24.80;35.65
72285;BME280;60220;53.552;10.092;2023-06-14T09:19:34;101827.63;;;24.77;35.75
72285;BME280;60220;53.552;10.092;2023-06-14T09:22:03;101832.56;;;24.69;35.82
72285;BME280;60220;53.552;10.092;2023-06-14T09:24:29;101827.09;;;25.03;35.87
72285;BME280;60220;53.552;10.092;2023-06-14T09:26:56;101826.03;;;25.37;34.89
72285;BME280;60220;53.552;10.092;2023-06-14T09:29:24;101819.78;;;24.57;36.34
72285;BME280;60220;53.552;10.092;2023-06-14T09:31:52;101830.22;;;24.78;36.79
72285;BME280;60220;53.552;10.092;2023-06-14T09:34:21;101820.03;;;25.01;36.17
72285;BME280;60220;53.552;10.092;2023-06-14T09:36:50;101818.47;;;24.48;38.20
72285;BME280;60220;53.552;10.092;2023-06-14T09:39:18;101816.66;;;24.49;37.68
72285;BME280;60220;53.552;10.092;2023-06-14T09:41:45;101827.56;;;24.11;37.88
72285;BME280;60220;53.552;10.092;2023-06-14T09:44:12;101822.56;;;23.52;38.36
72285;BME280;60220;53.552;10.092;2023-06-14T09:46:38;101821.41;;;23.92;37.57
72285;BME280;60220;53.552;10.092;2023-06-14T09:49:05;101821.91;;;24.34;38.01
72285;BME280;60220;53.552;10.092;2023-06-14T09:51:33;101809.91;;;25.21;38.41
72285;BME280;60220;53.552;10.092;2023-06-14T09:54:01;101815.53;;;25.01;37.82
72285;BME280;60220;53.552;10.092;2023-06-14T09:56:37;101815.13;;;24.76;39.42
72285;BME280;60220;53.552;10.092;2023-06-14T09:59:05;101814.13;;;24.78;38.71
72285;BME280;60220;53.552;10.092;2023-06-14T10:01:34;101810.38;;;24.81;37.71
72285;BME280;60220;53.552;10.092;2023-06-14T10:04:03;101806.19;;;24.93;38.34
72285;BME280;60220;53.552;10.092;2023-06-14T10:06:36;101812.84;;;24.85;37.67
72285;BME280;60220;53.552;10.092;2023-06-14T10:09:04;101808.38;;;24.69;38.80
72285;BME280;60220;53.552;10.092;2023-06-14T10:11:35;101818.41;;;25.29;36.67
72285;BME280;60220;53.552;10.092;2023-06-14T10:14:04;101805.63;;;24.86;37.37
72285;BME280;60220;53.552;10.092;2023-06-14T10:16:34;101815.00;;;24.79;38.40
72285;BME280;60220;53.552;10.092;2023-06-14T10:19:09;101807.31;;;24.89;37.58
72285;BME280;60220;53.552;10.092;2023-06-14T10:21:41;101818.44;;;24.65;38.53
72285;BME280;60220;53.552;10.092;2023-06-14T10:24:13;101811.63;;;24.75;38.11
72285;BME280;60220;53.552;10.092;2023-06-14T10:26:53;101810.63;;;24.94;38.00
72285;BME280;60220;53.552;10.092;2023-06-14T10:29:22;101807.63;;;23.99;38.48
72285;BME280;60220;53.552;10.092;2023-06-14T10:31:50;101808.50;;;24.34;38.03
72285;BME280;60220;53.552;10.092;2023-06-14T10:34:28;101804.41;;;24.76;38.35
72285;BME280;60220;53.552;10.092;2023-06-14T10:37:03;101801.28;;;24.68;36.79
72285;BME280;60220;53.552;10.092;2023-06-14T10:39:31;101802.78;;;24.40;36.84
72285;BME280;60220;53.552;10.092;2023-06-14T10:42:01;101802.38;;;24.48;37.14
72285;BME280;60220;53.552;10.092;2023-06-14T10:44:38;101805.59;;;24.55;36.91
72285;BME280;60220;53.552;10.092;2023-06-14T10:47:23;101790.81;;;24.30;36.89
72285;BME280;60220;53.552;10.092;2023-06-14T10:49:52;101797.28;;;24.26;37.24
72285;BME280;60220;53.552;10.092;2023-06-14T10:52:24;101792.69;;;24.11;38.06
72285;BME280;60220;53.552;10.092;2023-06-14T10:55:14;101786.84;;;24.37;35.88
72285;BME280;60220;53.552;10.092;2023-06-14T10:57:46;101780.19;;;24.93;35.91
72285;BME280;60220;53.552;10.092;2023-06-14T11:00:17;101793.63;;;25.40;36.73
72285;BME280;60220;53.552;10.092;2023-06-14T11:03:30;101783.97;;;24.25;37.31
72285;BME280;60220;53.552;10.092;2023-06-14T11:06:13;101784.97;;;24.88;36.31
72285;BME280;60220;53.552;10.092;2023-06-14T11:11:51;101783.97;;;25.36;35.83
72285;BME280;60220;53.552;10.092;2023-06-14T11:14:23;101784.22;;;24.36;37.61
72285;BME280;60220;53.552;10.092;2023-06-14T11:16:50;101774.03;;;24.75;36.10
72285;BME280;60220;53.552;10.092;2023-06-14T11:19:17;101781.84;;;24.47;36.82
72285;BME280;60220;53.552;10.092;2023-06-14T11:21:47;101776.50;;;24.63;36.80
72285;BME280;60220;53.552;10.092;2023-06-14T11:24:14;101777.72;;;25.36;36.30
72285;BME280;60220;53.552;10.092;2023-06-14T11:26:42;101765.56;;;25.14;36.45
72285;BME280;60220;53.552;10.092;2023-06-14T11:29:11;101771.56;;;25.49;34.90
72285;BME280;60220;53.552;10.092;2023-06-14T11:31:43;101761.00;;;24.68;36.55
72285;BME280;60220;53.552;10.092;2023-06-14T11:34:10;101763.03;;;24.96;36.57
72285;BME280;60220;53.552;10.092;2023-06-14T11:36:38;101759.88;;;24.72;36.59
72285;BME280;60220;53.552;10.092;2023-06-14T11:39:06;101758.16;;;24.22;37.15
72285;BME280;60220;53.552;10.092;2023-06-14T11:41:36;101760.31;;;24.31;37.52
72285;BME280;60220;53.552;10.092;2023-06-14T11:44:04;101757.03;;;24.26;38.39
72285;BME280;60220;53.552;10.092;2023-06-14T11:46:34;101755.88;;;24.48;37.73
72285;BME280;60220;53.552;10.092;2023-06-14T11:49:03;101750.38;;;24.33;37.95
72285;BME280;60220;53.552;10.092;2023-06-14T11:51:32;101753.06;;;24.16;37.84
72285;BME280;60220;53.552;10.092;2023-06-14T11:53:59;101749.53;;;24.16;37.42
72285;BME280;60220;53.552;10.092;2023-06-14T11:56:26;101748.09;;;24.59;36.43
72285;BME280;60220;53.552;10.092;2023-06-14T11:58:53;101741.53;;;24.31;36.23
72285;BME280;60220;53.552;10.092;2023-06-14T12:01:21;101752.31;;;23.97;37.55
72285;BME280;60220;53.552;10.092;2023-06-14T12:03:49;101746.03;;;24.31;37.13
72285;BME280;60220;53.552;10.092;2023-06-14T12:06:27;101745.97;;;24.32;37.57
72285;BME280;60220;53.552;10.092;2023-06-14T12:08:59;101732.84;;;24.43;37.07
72285;BME280;60220;53.552;10.092;2023-06-14T12:11:32;101737.88;;;24.50;37.34
72285;BME280;60220;53.552;10.092;2023-06-14T12:13:59;101746.44;;;24.72;37.53
72285;BME280;60220;53.552;10.092;2023-06-14T12:16:30;101733.25;;;24.52;37.32
72285;BME280;60220;53.552;10.092;2023-06-14T12:19:00;101721.50;;;24.70;36.22
72285;BME280;60220;53.552;10.092;2023-06-14T12:21:31;101733.31;;;25.60;35.30
72285;BME280;60220;53.552;10.092;2023-06-14T12:23:58;101721.22;;;25.21;36.09
72285;BME280;60220;53.552;10.092;2023-06-14T12:26:25;101723.56;;;24.49;36.57
72285;BME280;60220;53.552;10.092;2023-06-14T12:28:53;101727.09;;;23.84;38.62
72285;BME280;60220;53.552;10.092;2023-06-14T12:31:22;101733.78;;;24.10;37.96
72285;BME280;60220;53.552;10.092;2023-06-14T12:33:49;101728.91;;;24.16;37.67
72285;BME280;60220;53.552;10.092;2023-06-14T12:36:19;101724.72;;;24.61;36.67
72285;BME280;60220;53.552;10.092;2023-06-14T12:38:47;101733.41;;;24.97;36.23
72285;BME280;60220;53.552;10.092;2023-06-14T12:41:14;101728.53;;;25.19;36.32
72285;BME280;60220;53.552;10.092;2023-06-14T12:43:41;101734.72;;;25.36;36.23
72285;BME280;60220;53.552;10.092;2023-06-14T12:46:08;101731.25;;;25.34;36.66
72285;BME280;60220;53.552;10.092;2023-06-14T12:48:34;101738.31;;;25.66;35.58
72285;BME280;60220;53.552;10.092;2023-06-14T12:51:01;101728.19;;;25.85;34.95